Time;durP1;ratioP1;P1;durP2;ratioP2;P2;SDS_P1;SDS_P2;PMS_P1;PMS_P2;Temp;Humidity;BMP_temperature;BMP_pressure;BME280_temperature;BME280_humidity;BME280_pressure;Samples;Min_cycle;Max_cycle;Signal;HPM_P1;HPM_P2
2022/07/06 00:00:59;;;;;;;7.28;4.12;;;;;;;20.31;65.70;99731.88;4456536;32;34524;-79
2022/07/06 00:03:30;;;;;;;6.20;3.67;;;;;;;20.37;65.29;99728.03;4443380;32;33346;-79
2022/07/06 00:06:00;;;;;;;7.95;3.95;;;;;;;20.35;65.56;99733.03;4443615;32;33641;-79
2022/07/06 00:08:28;;;;;;;7.53;3.87;;;;;;;20.54;64.83;99736.22;4456459;32;33455;-79
2022/07/06 00:10:55;;;;;;;7.30;4.20;;;;;;;20.25;65.87;99737.72;4443423;32;32267;-79
2022/07/06 00:13:23;;;;;;;7.57;4.37;;;;;;;20.29;65.62;99736.06;4456564;32;33000;-79
2022/07/06 00:15:51;;;;;;;6.68;4.07;;;;;;;19.99;66.86;99745.94;4456381;32;34787;-79
2022/07/06 00:18:18;;;;;;;7.22;4.00;;;;;;;20.14;66.50;99747.16;4469173;32;33378;-79
2022/07/06 00:20:47;;;;;;;7.03;4.12;;;;;;;20.12;66.37;99738.22;4456726;32;34427;-79
2022/07/06 00:23:15;;;;;;;7.78;4.20;;;;;;;20.58;64.63;99736.50;4456723;32;35162;-79
2022/07/06 00:25:42;;;;;;;7.78;4.20;;;;;;;20.96;63.43;99732.41;4469377;32;33899;-79
2022/07/06 00:28:13;;;;;;;6.37;4.05;;;;;;;20.78;63.63;99722.62;4456588;32;34060;-79
2022/07/06 00:30:41;;;;;;;6.32;4.00;;;;;;;21.07;62.84;99720.13;4456364;32;32197;-79
2022/07/06 00:33:09;;;;;;;7.50;4.10;;;;;;;20.67;63.72;99721.75;4456428;32;34425;-79
2022/07/06 00:35:36;;;;;;;8.20;4.05;;;;;;;21.07;62.58;99725.72;4456282;32;34041;-79
2022/07/06 00:38:06;;;;;;;5.72;3.70;;;;;;;20.82;63.37;99720.09;4456199;32;34137;-80
2022/07/06 00:40:34;;;;;;;7.00;4.00;;;;;;;21.13;62.30;99730.19;4456388;32;33786;-79
2022/07/06 00:43:01;;;;;;;5.60;4.15;;;;;;;20.91;62.90;99722.06;4456455;32;33721;-79
2022/07/06 00:45:29;;;;;;;6.60;3.90;;;;;;;21.02;62.56;99720.13;4456103;32;34049;-80
2022/07/06 00:47:57;;;;;;;7.12;4.25;;;;;;;20.93;62.69;99719.00;4443485;32;32616;-80
2022/07/06 00:50:25;;;;;;;5.25;3.80;;;;;;;20.68;63.28;99715.06;4456985;32;33598;-79
2022/07/06 00:53:01;;;;;;;7.78;4.12;;;;;;;20.71;63.58;99720.09;4456563;32;35209;-80
2022/07/06 00:55:33;;;;;;;6.35;4.25;;;;;;;20.89;63.03;99720.66;4456696;32;33302;-80
2022/07/06 00:58:01;;;;;;;6.32;3.95;;;;;;;20.99;62.74;99715.09;4446615;32;32802;-78
2022/07/06 01:00:30;;;;;;;5.40;3.42;;;;;;;20.51;64.21;99705.25;4459701;32;32077;-79
2022/07/06 01:02:58;;;;;;;5.75;3.70;;;;;;;20.59;64.23;99708.34;4459997;32;34853;-78
2022/07/06 01:05:26;;;;;;;8.70;4.47;;;;;;;20.44;64.76;99708.28;4446364;32;32219;-79
2022/07/06 01:07:54;;;;;;;5.87;3.80;;;;;;;20.59;63.92;99710.28;4472040;32;33602;-79
2022/07/06 01:10:22;;;;;;;6.22;4.05;;;;;;;20.34;64.89;99713.78;4458813;32;34074;-79
2022/07/06 01:12:50;;;;;;;5.93;4.00;;;;;;;20.55;64.36;99710.00;4458013;32;34322;-79
2022/07/06 01:15:24;;;;;;;9.20;4.05;;;;;;;20.58;64.24;99709.44;4457090;32;34772;-79
2022/07/06 01:17:52;;;;;;;6.75;4.35;;;;;;;20.71;63.82;99710.87;4456289;32;31772;-80
2022/07/06 01:20:24;;;;;;;7.25;4.40;;;;;;;20.78;63.34;99713.41;4443368;32;31889;-80
2022/07/06 01:22:53;;;;;;;5.65;3.75;;;;;;;20.79;63.42;99712.31;4469803;32;34470;-79
2022/07/06 01:25:21;;;;;;;6.30;3.80;;;;;;;21.04;62.52;99706.75;4455745;32;33944;-79
2022/07/06 01:27:49;;;;;;;5.60;3.80;;;;;;;20.86;62.77;99710.87;4455704;32;31977;-80
2022/07/06 01:30:18;;;;;;;5.82;4.10;;;;;;;20.87;62.84;99709.78;4455757;32;34991;-80
2022/07/06 01:32:47;;;;;;;6.50;4.12;;;;;;;20.90;62.49;99712.00;4455462;32;34017;-79
2022/07/06 01:35:15;;;;;;;4.82;3.62;;;;;;;20.79;62.94;99721.50;4468483;32;34714;-80
2022/07/06 01:37:46;;;;;;;5.80;4.35;;;;;;;20.44;63.94;99725.00;4442866;32;31255;-80
2022/07/06 01:40:14;;;;;;;7.22;4.70;;;;;;;20.51;64.05;99719.19;4468413;32;34329;-80
2022/07/06 01:42:41;;;;;;;6.30;4.32;;;;;;;20.09;65.40;99717.31;4468302;32;34396;-80
2022/07/06 01:45:10;;;;;;;6.05;4.35;;;;;;;20.28;64.97;99706.50;4455387;32;33999;-80
2022/07/06 01:47:38;;;;;;;8.32;4.05;;;;;;;20.59;63.60;99716.72;4468531;32;33100;-79
2022/07/06 01:50:07;;;;;;;6.37;4.62;;;;;;;20.02;65.53;99714.78;4455349;32;33622;-80
2022/07/06 01:52:35;;;;;;;6.05;4.10;;;;;;;20.08;65.28;99726.78;4468483;32;33741;-79
2022/07/06 01:55:03;;;;;;;7.65;4.95;;;;;;;20.22;64.78;99711.22;4468380;32;34079;-80
2022/07/06 01:57:33;;;;;;;5.80;4.37;;;;;;;20.44;64.13;99718.59;4455492;32;32037;-80
2022/07/06 02:00:01;;;;;;;7.30;5.32;;;;;;;20.20;64.74;99719.00;4455487;32;32996;-79
2022/07/06 02:02:38;;;;;;;8.07;4.85;;;;;;;19.98;65.58;99738.72;4456125;32;33983;-80
2022/07/06 02:05:08;;;;;;;7.50;5.07;;;;;;;19.45;67.76;99738.88;4457346;32;33987;-80
2022/07/06 02:07:36;;;;;;;6.85;4.97;;;;;;;19.45;67.66;99738.88;4470028;32;33325;-79
2022/07/06 02:10:07;;;;;;;10.35;5.60;;;;;;;19.75;66.83;99733.53;4445039;32;32279;-80
2022/07/06 02:12:35;;;;;;;6.57;4.37;;;;;;;19.89;66.25;99733.91;4457244;32;35009;-80
2022/07/06 02:15:03;;;;;;;8.82;5.05;;;;;;;19.94;65.59;99743.13;4457163;32;33821;-79
2022/07/06 02:17:30;;;;;;;7.28;5.28;;;;;;;19.97;65.96;99753.75;4444505;32;31680;-79
2022/07/06 02:20:00;;;;;;;7.65;5.37;;;;;;;19.66;67.18;99757.41;4457445;32;34635;-80
2022/07/06 02:22:28;;;;;;;8.60;5.32;;;;;;;19.91;66.36;99757.59;4470137;32;35400;-79
2022/07/06 02:24:55;;;;;;;7.97;5.50;;;;;;;19.48;67.68;99760.59;4456915;32;32416;-79
2022/07/06 02:27:24;;;;;;;11.75;5.62;;;;;;;19.62;67.54;99756.28;4444465;32;32155;-79
2022/07/06 02:29:52;;;;;;;8.15;5.53;;;;;;;19.90;66.47;99763.44;4457225;32;33164;-79
2022/07/06 02:32:20;;;;;;;9.60;5.57;;;;;;;19.62;67.65;99750.69;4444527;32;33885;-79
2022/07/06 02:34:49;;;;;;;7.50;5.68;;;;;;;19.96;66.11;99734.50;4457535;32;34249;-79
2022/07/06 02:37:17;;;;;;;8.18;5.68;;;;;;;19.65;67.53;99736.25;4444856;32;31881;-79
2022/07/06 02:39:44;;;;;;;9.75;6.10;;;;;;;19.66;67.12;99726.78;4457074;32;33689;-79
2022/07/06 02:42:13;;;;;;;7.70;5.30;;;;;;;19.97;65.96;99741.75;4457280;32;35193;-79
2022/07/06 02:44:41;;;;;;;8.00;5.85;;;;;;;20.12;65.25;99739.06;4444515;32;32719;-80
2022/07/06 02:47:09;;;;;;;6.82;5.40;;;;;;;19.84;66.13;99743.06;4456981;32;32725;-80
2022/07/06 02:49:37;;;;;;;9.68;5.55;;;;;;;20.16;65.20;99751.31;4444341;32;32301;-79
2022/07/06 02:52:05;;;;;;;8.27;5.70;;;;;;;20.22;64.97;99752.19;4444343;32;33005;-80
2022/07/06 02:54:33;;;;;;;8.48;5.43;;;;;;;20.14;65.44;99764.72;4457188;32;34156;-80
2022/07/06 02:57:01;;;;;;;11.70;5.60;;;;;;;20.08;65.44;99763.00;4444305;32;32226;-80
2022/07/06 02:59:29;;;;;;;11.05;6.05;;;;;;;20.25;64.92;99773.94;4470882;32;34391;-79
2022/07/06 03:01:59;;;;;;;9.23;6.00;;;;;;;20.00;66.05;99769.91;4457097;32;35323;-79
2022/07/06 03:04:27;;;;;;;9.85;6.22;;;;;;;19.79;66.43;99779.25;4469861;32;34166;-79
2022/07/06 03:06:55;;;;;;;8.25;5.87;;;;;;;19.81;66.24;99790.94;4457002;32;31943;-79
2022/07/06 03:09:23;;;;;;;8.57;6.07;;;;;;;20.01;65.96;99790.25;4456630;32;34594;-80
2022/07/06 03:11:53;;;;;;;9.32;6.50;;;;;;;19.55;67.33;99778.75;4456750;32;33793;-80
2022/07/06 03:14:21;;;;;;;8.10;6.15;;;;;;;19.57;67.44;99789.63;4456912;32;33822;-79
2022/07/06 03:16:49;;;;;;;9.20;5.68;;;;;;;19.07;69.53;99786.09;4456303;32;33201;-79
2022/07/06 03:19:18;;;;;;;10.15;6.20;;;;;;;19.99;66.16;99784.97;4444199;32;33809;-80
2022/07/06 03:21:46;;;;;;;10.05;5.65;;;;;;;20.00;65.90;99799.72;4456771;32;33114;-79
2022/07/06 03:24:14;;;;;;;10.52;5.78;;;;;;;19.34;68.20;99788.03;4444022;32;32551;-80
2022/07/06 03:26:42;;;;;;;8.13;6.03;;;;;;;19.31;68.46;99808.03;4444032;32;31951;-80
2022/07/06 03:29:11;;;;;;;8.60;5.68;;;;;;;19.52;67.61;99806.28;4457083;32;33802;-79
2022/07/06 03:31:38;;;;;;;12.30;5.85;;;;;;;19.51;67.59;99815.72;4456987;32;35235;-80
2022/07/06 03:34:07;;;;;;;9.32;5.62;;;;;;;19.79;66.65;99817.37;4469494;32;34146;-79
2022/07/06 03:36:35;;;;;;;7.82;6.03;;;;;;;19.58;67.51;99820.00;4443987;32;32151;-80
2022/07/06 03:39:06;;;;;;;9.55;5.43;;;;;;;19.69;66.84;99812.56;4456962;32;33278;-80
2022/07/06 03:41:34;;;;;;;9.23;5.70;;;;;;;19.61;67.09;99813.06;4456980;32;34355;-78
2022/07/06 03:44:04;;;;;;;9.45;6.05;;;;;;;19.47;67.48;99814.59;4444059;32;32881;-80
2022/07/06 03:46:34;;;;;;;12.35;6.60;;;;;;;19.16;68.58;99808.72;4443918;32;31780;-79
2022/07/06 03:49:04;;;;;;;8.07;5.78;;;;;;;19.54;67.33;99804.94;4444121;32;32240;-80
2022/07/06 03:51:32;;;;;;;8.82;5.87;;;;;;;19.17;68.29;99815.97;4471212;32;35556;-80
2022/07/06 03:54:00;;;;;;;7.85;5.65;;;;;;;19.20;68.58;99803.47;4456506;32;34177;-80
2022/07/06 03:56:28;;;;;;;8.45;6.00;;;;;;;19.72;66.77;99793.38;4456589;32;33452;-80
2022/07/06 03:58:56;;;;;;;7.90;6.07;;;;;;;19.43;67.59;99797.59;4456777;32;34606;-80
2022/07/06 04:01:24;;;;;;;8.73;5.80;;;;;;;20.09;65.39;99791.72;4469240;32;34628;-80
2022/07/06 04:03:53;;;;;;;8.38;6.00;;;;;;;20.30;64.23;99790.69;4469089;32;33946;-80
2022/07/06 04:06:21;;;;;;;7.72;5.85;;;;;;;19.49;67.14;99795.69;4456436;32;33922;-80
2022/07/06 04:08:48;;;;;;;8.27;5.50;;;;;;;19.90;66.21;99792.12;4456334;32;33661;-80
2022/07/06 04:11:16;;;;;;;10.05;5.72;;;;;;;20.16;65.52;99792.28;4456357;32;33965;-80
2022/07/06 04:13:44;;;;;;;11.05;5.55;;;;;;;20.34;64.97;99794.63;4470415;32;33937;-80
2022/07/06 04:16:12;;;;;;;8.60;5.47;;;;;;;20.42;64.85;99799.72;4456393;32;32913;-80
2022/07/06 04:18:41;;;;;;;9.80;6.07;;;;;;;20.45;64.33;99803.91;4456424;32;32333;-80
2022/07/06 04:21:09;;;;;;;6.93;5.72;;;;;;;20.53;64.15;99800.59;4456560;32;33348;-80
2022/07/06 04:23:37;;;;;;;9.23;6.28;;;;;;;20.73;63.35;99791.50;4443499;32;33489;-80
2022/07/06 04:26:06;;;;;;;13.20;5.60;;;;;;;20.79;63.34;99787.63;4456385;32;32469;-80
2022/07/06 04:28:34;;;;;;;10.68;6.12;;;;;;;20.88;62.34;99786.78;4443501;32;32603;-80
2022/07/06 04:31:01;;;;;;;8.18;5.95;;;;;;;20.86;62.12;99789.00;4456283;32;34353;-80
2022/07/06 04:33:29;;;;;;;8.88;6.12;;;;;;;20.77;62.37;99784.25;4456658;32;34597;-80
2022/07/06 04:35:57;;;;;;;9.95;5.82;;;;;;;20.91;62.14;99783.44;4469189;32;34234;-80
2022/07/06 04:38:25;;;;;;;7.47;5.62;;;;;;;20.75;62.27;99781.75;4443985;32;33212;-79
2022/07/06 04:40:54;;;;;;;7.40;5.65;;;;;;;20.94;61.92;99779.28;4443834;32;33957;-80
2022/07/06 04:43:22;;;;;;;11.70;6.03;;;;;;;21.00;61.63;99783.75;4456151;32;34097;-80
2022/07/06 04:45:50;;;;;;;7.55;5.57;;;;;;;20.99;61.78;99780.13;4443441;32;32839;-80
2022/07/06 04:48:18;;;;;;;8.60;5.70;;;;;;;20.99;61.95;99779.28;4456296;32;34033;-80
2022/07/06 04:50:46;;;;;;;11.18;5.62;;;;;;;21.21;61.10;99790.22;4456161;32;34377;-80
2022/07/06 04:53:15;;;;;;;8.48;6.10;;;;;;;20.74;62.53;99784.81;4456497;32;34044;-80
2022/07/06 04:55:43;;;;;;;7.85;5.82;;;;;;;21.25;60.66;99781.06;4456534;32;33335;-79
2022/07/06 04:58:10;;;;;;;10.15;5.72;;;;;;;20.58;62.79;99790.31;4430516;32;33013;-80
2022/07/06 05:00:39;;;;;;;10.77;6.30;;;;;;;20.61;62.92;99787.00;4443296;32;32990;-80
2022/07/06 05:03:07;;;;;;;8.45;6.22;;;;;;;20.09;64.93;99797.28;4456164;32;35197;-80
2022/07/06 05:05:34;;;;;;;9.20;6.22;;;;;;;20.46;63.61;99792.50;4456212;32;33428;-81
2022/07/06 05:08:04;;;;;;;11.82;6.07;;;;;;;20.64;63.08;99786.44;4455928;32;33967;-80
2022/07/06 05:10:33;;;;;;;8.82;6.07;;;;;;;20.91;61.99;99785.41;4469007;32;34305;-80
2022/07/06 05:13:04;;;;;;;9.57;5.50;;;;;;;21.00;61.67;99792.97;4456495;32;34501;-79
2022/07/06 05:15:31;;;;;;;10.18;6.25;;;;;;;21.20;61.22;99794.97;4456239;32;31643;-80
2022/07/06 05:18:00;;;;;;;8.85;6.37;;;;;;;21.05;61.42;99787.37;4456715;32;33802;-79
2022/07/06 05:20:28;;;;;;;10.13;6.20;;;;;;;21.29;60.85;99787.75;4443981;32;33453;-79
2022/07/06 05:22:56;;;;;;;8.30;5.53;;;;;;;21.53;60.21;99788.03;4458257;32;34160;-78
2022/07/06 05:25:28;;;;;;;11.82;5.80;;;;;;;21.46;60.27;99786.63;4445779;32;31778;-78
2022/07/06 05:27:55;;;;;;;10.68;6.32;;;;;;;21.27;61.06;99798.34;4459487;32;34152;-79
2022/07/06 05:30:23;;;;;;;8.23;5.65;;;;;;;21.19;61.29;99798.88;4471641;32;35137;-78
2022/07/06 05:32:51;;;;;;;6.75;5.47;;;;;;;21.16;61.04;99798.59;4458357;32;34720;-78
2022/07/06 05:35:19;;;;;;;9.25;6.05;;;;;;;21.64;60.05;99803.69;4446250;32;32585;-79
2022/07/06 05:38:07;;;;;;;10.18;5.20;;;;;;;21.34;60.78;99806.47;4461216;32;34021;-80
2022/07/06 05:40:35;;;;;;;9.27;5.93;;;;;;;21.39;60.71;99808.44;4459844;32;32934;-80
2022/07/06 05:43:03;;;;;;;8.00;5.90;;;;;;;21.11;61.11;99824.53;4471496;32;34432;-78
2022/07/06 05:45:30;;;;;;;8.98;5.70;;;;;;;21.48;60.38;99818.75;4470911;32;32921;-78
2022/07/06 05:50:44;;;;;;;8.85;6.00;;;;;;;21.40;60.37;99821.28;4470677;32;35369;-78
2022/07/06 05:53:12;;;;;;;8.25;6.05;;;;;;;21.47;60.49;99831.03;4457913;32;33917;-78
2022/07/06 05:55:48;;;;;;;9.70;6.32;;;;;;;21.63;60.08;99840.28;4458690;32;34061;-79
2022/07/06 05:58:16;;;;;;;11.15;6.18;;;;;;;21.86;59.08;99839.72;4457673;32;34514;-78
2022/07/06 06:00:44;;;;;;;8.63;5.60;;;;;;;21.72;59.62;99846.16;4444971;32;34503;-78
2022/07/06 06:03:12;;;;;;;9.20;5.95;;;;;;;21.98;58.82;99840.28;4457368;32;34004;-79
2022/07/06 06:05:41;;;;;;;8.20;6.03;;;;;;;21.58;59.74;99843.06;4457470;32;34497;-79
2022/07/06 06:08:09;;;;;;;12.37;6.25;;;;;;;21.58;60.40;99845.84;4457451;32;33916;-78
2022/07/06 06:10:38;;;;;;;9.02;6.28;;;;;;;22.26;58.59;99854.81;4457693;32;35519;-79
2022/07/06 06:13:06;;;;;;;10.35;6.95;;;;;;;22.56;58.27;99853.91;4457685;32;34129;-79
2022/07/06 06:15:34;;;;;;;9.52;6.57;;;;;;;22.90;56.48;99854.09;4457747;32;32919;-79
2022/07/06 06:18:03;;;;;;;9.75;6.55;;;;;;;22.86;56.46;99862.22;4457617;32;35340;-78
2022/07/06 06:20:31;;;;;;;9.95;6.37;;;;;;;22.20;58.10;99858.72;4470218;32;34850;-79
2022/07/06 06:22:59;;;;;;;10.48;7.12;;;;;;;22.41;57.67;99851.97;4457260;32;34199;-79
2022/07/06 06:25:29;;;;;;;8.32;6.47;;;;;;;22.18;57.90;99856.22;4470203;32;33996;-79
2022/07/06 06:28:00;;;;;;;8.32;6.57;;;;;;;22.35;57.53;99845.56;4457248;32;32095;-79
2022/07/06 06:30:28;;;;;;;9.30;6.80;;;;;;;22.63;57.13;99858.09;4457115;32;35233;-79
2022/07/06 06:33:19;;;;;;;13.38;8.35;;;;;;;22.66;57.22;99845.50;4457101;32;34041;-79
2022/07/06 06:35:50;;;;;;;13.43;7.43;;;;;;;23.28;55.08;99844.94;4471216;32;33315;-79
2022/07/06 06:38:22;;;;;;;10.35;6.65;;;;;;;23.08;55.70;99838.63;4470071;32;34712;-79
2022/07/06 06:40:50;;;;;;;9.23;6.80;;;;;;;22.81;56.55;99841.81;4470170;32;35075;-78
2022/07/06 06:43:18;;;;;;;8.48;6.07;;;;;;;22.68;56.55;99848.84;4456988;32;32231;-79
2022/07/06 06:45:53;;;;;;;12.52;6.85;;;;;;;22.96;56.07;99856.56;4458171;32;31731;-79
2022/07/06 06:48:21;;;;;;;9.13;6.57;;;;;;;23.25;55.08;99862.31;4444489;32;33341;-79
2022/07/06 06:50:48;;;;;;;10.65;6.53;;;;;;;23.43;54.10;99860.78;4456946;32;32960;-79
2022/07/06 06:53:16;;;;;;;8.95;6.35;;;;;;;23.01;55.03;99855.72;4470059;32;34257;-79
2022/07/06 06:55:44;;;;;;;9.23;6.32;;;;;;;23.18;54.91;99859.00;4457215;32;33674;-79
2022/07/06 06:58:11;;;;;;;11.88;6.53;;;;;;;23.03;54.55;99861.03;4457100;32;34094;-79
2022/07/06 07:00:39;;;;;;;9.07;6.70;;;;;;;22.98;55.08;99853.50;4456909;32;33137;-79
2022/07/06 07:03:07;;;;;;;8.55;6.50;;;;;;;23.15;54.63;99855.94;4456665;32;33994;-79
2022/07/06 07:05:34;;;;;;;13.57;6.60;;;;;;;23.21;54.69;99851.97;4469919;32;33433;-78
2022/07/06 07:08:02;;;;;;;11.25;5.90;;;;;;;23.70;53.36;99851.97;4456779;32;34706;-79
2022/07/06 07:10:33;;;;;;;10.07;5.68;;;;;;;23.59;53.92;99858.75;4457356;32;34633;-78
2022/07/06 07:13:00;;;;;;;8.50;5.43;;;;;;;23.57;53.33;99856.25;4456724;32;34653;-79
2022/07/06 07:15:29;;;;;;;12.63;5.75;;;;;;;23.31;53.87;99855.56;4457051;32;33206;-78
2022/07/06 07:17:57;;;;;;;9.68;5.60;;;;;;;23.81;52.90;99859.16;4457208;32;33891;-78
2022/07/06 07:20:25;;;;;;;10.57;6.00;;;;;;;23.75;53.14;99860.34;4469607;32;34210;-78
2022/07/06 07:22:52;;;;;;;8.88;5.68;;;;;;;23.82;52.83;99851.59;4456973;32;32340;-78
2022/07/06 07:25:20;;;;;;;8.73;5.28;;;;;;;24.10;52.26;99858.34;4457228;32;33242;-79
2022/07/06 07:27:48;;;;;;;7.57;4.78;;;;;;;24.45;51.92;99854.41;4456719;32;33759;-80
2022/07/06 07:30:16;;;;;;;6.97;4.55;;;;;;;24.83;51.11;99852.56;4456925;32;34677;-80
2022/07/06 07:32:44;;;;;;;8.07;5.03;;;;;;;25.08;50.20;99857.88;4457089;32;34252;-80
2022/07/06 07:35:12;;;;;;;7.75;5.07;;;;;;;24.85;49.46;99858.69;4469999;32;33744;-79
2022/07/06 07:37:40;;;;;;;7.28;4.78;;;;;;;25.09;49.18;99855.91;4456708;32;33566;-80
2022/07/06 07:40:08;;;;;;;9.05;5.57;;;;;;;25.26;50.45;99854.28;4456587;32;34347;-80
2022/07/06 07:42:38;;;;;;;7.55;5.03;;;;;;;25.37;49.14;99862.53;4469429;32;33496;-79
2022/07/06 07:45:09;;;;;;;5.90;4.37;;;;;;;25.40;48.59;99859.13;4457123;32;33252;-79
2022/07/06 07:47:38;;;;;;;7.28;4.03;;;;;;;25.26;48.30;99871.13;4469275;32;34374;-79
2022/07/06 07:50:06;;;;;;;10.45;4.55;;;;;;;25.42;47.84;99862.47;4456606;32;33289;-79
2022/07/06 07:52:34;;;;;;;8.40;5.05;;;;;;;25.61;47.74;99860.50;4456644;32;34800;-78
2022/07/06 07:55:03;;;;;;;6.35;4.75;;;;;;;25.69;47.36;99867.44;4456767;32;32977;-78
2022/07/06 07:57:50;;;;;;;7.87;4.85;;;;;;;25.68;47.06;99865.78;4448174;32;32167;-79
2022/07/06 08:00:21;;;;;;;6.97;5.12;;;;;;;26.07;46.93;99856.97;4456517;32;32835;-78
2022/07/06 08:02:54;;;;;;;;;;;;;;;25.99;46.76;99860.50;4456968;32;34048;-79
2022/07/06 08:05:22;;;;;;;9.00;4.62;;;;;;;25.97;45.81;99851.53;4456554;32;33450;-78
2022/07/06 08:07:50;;;;;;;10.80;4.60;;;;;;;26.20;46.06;99858.97;4456651;32;33921;-80
2022/07/06 08:10:27;;;;;;;6.90;4.65;;;;;;;26.02;45.57;99859.84;4444017;32;33930;-78
2022/07/06 08:12:56;;;;;;;7.05;4.47;;;;;;;26.33;45.11;99863.84;4456744;32;34677;-80
2022/07/06 08:15:24;;;;;;;8.05;4.85;;;;;;;26.46;45.40;99876.28;4456813;32;33401;-80
2022/07/06 08:17:52;;;;;;;7.72;4.03;;;;;;;26.49;43.76;99861.59;4456427;32;33304;-80
2022/07/06 08:20:20;;;;;;;5.70;3.92;;;;;;;26.63;44.23;99870.06;4443542;32;32951;-81
2022/07/06 08:22:48;;;;;;;8.90;3.95;;;;;;;26.74;43.48;99872.34;4456441;32;34641;-81
2022/07/06 08:25:15;;;;;;;6.70;3.90;;;;;;;26.68;43.08;99869.94;4469236;32;33261;-81
2022/07/06 08:27:43;;;;;;;7.18;4.45;;;;;;;26.58;42.85;99873.81;4443565;32;33189;-81
2022/07/06 08:30:11;;;;;;;8.05;5.60;;;;;;;26.70;43.32;99865.66;4469274;32;32895;-81
2022/07/06 08:32:42;;;;;;;10.00;4.70;;;;;;;26.54;43.88;99879.22;4456256;32;32444;-81
2022/07/06 08:35:31;;;;;;;8.40;4.90;;;;;;;26.78;43.07;99873.38;4458167;32;31745;-81
2022/07/06 08:38:01;;;;;;;8.50;4.53;;;;;;;27.13;43.15;99873.84;4455967;32;32260;-81
2022/07/06 08:40:34;;;;;;;7.15;5.12;;;;;;;27.54;42.26;99877.41;4469184;32;35137;-80
2022/07/06 08:43:02;;;;;;;8.13;5.20;;;;;;;27.47;42.78;99877.00;4456317;32;34648;-80
2022/07/06 08:45:31;;;;;;;8.70;4.78;;;;;;;27.40;42.52;99889.84;4468892;32;32826;-80
2022/07/06 08:48:06;;;;;;;6.12;4.55;;;;;;;27.47;42.17;99885.47;4469002;32;33899;-81
2022/07/06 08:50:38;;;;;;;8.30;4.85;;;;;;;27.55;42.00;99889.53;4456760;32;34455;-81
2022/07/06 08:53:06;;;;;;;12.18;5.20;;;;;;;27.38;41.91;99892.16;4456186;32;33500;-81
2022/07/06 08:55:34;;;;;;;7.45;5.20;;;;;;;27.44;42.00;99890.91;4469005;32;33448;-80
2022/07/06 08:58:07;;;;;;;8.15;4.78;;;;;;;27.69;41.39;99876.25;4455912;32;32261;-80
2022/07/06 09:00:34;;;;;;;10.40;4.50;;;;;;;28.20;39.88;99869.34;4455795;32;34553;-80
2022/07/06 09:03:04;;;;;;;6.57;4.45;;;;;;;27.69;40.68;99887.53;4455843;32;33897;-81
2022/07/06 09:05:32;;;;;;;6.45;4.60;;;;;;;28.00;40.00;99886.78;4455967;32;33401;-80
2022/07/06 09:08:00;;;;;;;6.22;4.37;;;;;;;28.08;39.04;99875.56;4455918;32;34247;-81
2022/07/06 09:10:28;;;;;;;9.20;4.30;;;;;;;28.35;39.39;99882.25;4456225;32;34495;-81
2022/07/06 09:13:04;;;;;;;10.13;4.37;;;;;;;28.55;38.52;99880.88;4455905;32;34574;-80
2022/07/06 09:15:38;;;;;;;9.48;4.53;;;;;;;28.50;39.38;99885.50;4455965;32;31697;-81
2022/07/06 09:18:07;;;;;;;5.90;4.68;;;;;;;28.65;38.74;99897.53;4468720;32;33664;-80
2022/07/06 09:20:36;;;;;;;6.70;4.10;;;;;;;28.71;38.58;99873.63;4468877;32;35564;-80
2022/07/06 09:23:05;;;;;;;7.55;4.20;;;;;;;28.76;37.50;99868.69;4455747;32;33362;-80
2022/07/06 09:25:36;;;;;;;7.32;4.30;;;;;;;28.39;37.29;99869.16;4468576;32;33582;-80
2022/07/06 09:28:05;;;;;;;5.37;3.85;;;;;;;28.65;37.13;99870.13;4455907;32;34624;-80
2022/07/06 09:30:40;;;;;;;7.22;3.50;;;;;;;28.66;36.94;99885.91;4443086;32;32977;-80
2022/07/06 09:33:09;;;;;;;;;;;;;;;28.88;37.26;99876.56;4456557;32;34917;-80
2022/07/06 09:35:38;;;;;;;6.82;3.97;;;;;;;29.12;36.89;99876.16;4455962;32;33437;-81
2022/07/06 09:38:08;;;;;;;6.75;3.90;;;;;;;28.93;35.81;99867.94;4442945;32;32207;-81
2022/07/06 09:40:42;;;;;;;8.68;4.53;;;;;;;28.78;35.41;99872.00;4468843;32;34329;-80
2022/07/06 09:43:21;;;;;;;5.90;3.80;;;;;;;29.12;36.65;99864.87;4468603;32;34664;-81
2022/07/06 09:45:55;;;;;;;9.10;3.45;;;;;;;29.28;35.28;99868.88;4468713;32;33049;-81
2022/07/06 09:48:24;;;;;;;5.12;3.20;;;;;;;29.39;35.85;99870.22;4468312;32;32171;-81
2022/07/06 09:50:58;;;;;;;6.07;3.53;;;;;;;29.66;35.16;99865.47;4455677;32;35299;-81
2022/07/06 09:53:27;;;;;;;8.65;4.53;;;;;;;29.56;33.87;99866.63;4469380;32;34326;-81
2022/07/06 09:55:56;;;;;;;5.97;3.40;;;;;;;30.05;35.89;99864.50;4455493;32;34037;-80
2022/07/06 09:58:24;;;;;;;7.90;4.25;;;;;;;30.05;33.38;99868.16;4455732;32;34596;-81
2022/07/06 10:01:12;;;;;;;7.12;3.90;;;;;;;30.12;34.48;99867.66;4457719;32;35184;-81
2022/07/06 10:03:40;;;;;;;6.93;3.87;;;;;;;30.09;33.20;99874.81;4455383;32;33921;-81
2022/07/06 10:06:08;;;;;;;5.82;3.47;;;;;;;30.39;33.78;99870.09;4455547;32;33392;-82
2022/07/06 10:08:36;;;;;;;8.07;3.80;;;;;;;30.36;31.96;99876.44;4455100;32;33720;-80
2022/07/06 10:11:06;;;;;;;5.30;3.60;;;;;;;30.24;32.19;99873.47;4455152;32;34291;-81
2022/07/06 10:13:34;;;;;;;5.80;3.30;;;;;;;30.39;31.89;99872.94;4455373;32;32188;-80
2022/07/06 10:16:02;;;;;;;5.85;3.35;;;;;;;30.04;30.59;99876.97;4442324;32;32040;-80
2022/07/06 10:18:32;;;;;;;8.00;3.60;;;;;;;30.37;30.64;99866.78;4455154;32;32304;-80
2022/07/06 10:21:00;;;;;;;6.18;3.47;;;;;;;30.60;30.35;99872.22;4468136;32;34523;-80
2022/07/06 10:23:28;;;;;;;5.07;3.00;;;;;;;30.86;31.61;99870.13;4467837;32;33820;-80
2022/07/06 10:25:57;;;;;;;4.87;2.65;;;;;;;31.24;29.37;99875.78;4456631;32;33247;-80
2022/07/06 10:28:24;;;;;;;5.60;2.95;;;;;;;31.17;27.57;99861.34;4457154;32;33264;-81
2022/07/06 10:30:52;;;;;;;5.10;2.78;;;;;;;31.61;28.84;99865.56;4457198;32;33880;-80
2022/07/06 10:33:21;;;;;;;5.85;3.22;;;;;;;31.44;27.77;99868.50;4457231;32;33923;-80
2022/07/06 10:35:55;;;;;;;5.57;2.70;;;;;;;31.71;27.76;99865.19;4457787;32;33458;-80
2022/07/06 10:38:31;;;;;;;11.60;3.35;;;;;;;32.10;26.82;99868.66;4457101;32;33547;-81
2022/07/06 10:41:07;;;;;;;33.00;6.70;;;;;;;31.95;26.74;99861.63;4457154;32;32675;-80
2022/07/06 10:43:42;;;;;;;5.22;2.72;;;;;;;32.23;26.77;99873.25;4457400;32;34045;-80
2022/07/06 10:46:12;;;;;;;5.28;2.65;;;;;;;32.39;25.07;99871.41;4470003;32;33399;-81
2022/07/06 10:48:41;;;;;;;4.80;2.67;;;;;;;31.91;24.78;99866.31;4444025;32;31910;-81
2022/07/06 10:51:12;;;;;;;6.15;2.72;;;;;;;32.28;24.42;99870.19;4457283;32;33743;-81
2022/07/06 10:53:41;;;;;;;5.68;2.50;;;;;;;32.52;24.76;99869.41;4457010;32;34364;-80
2022/07/06 10:56:11;;;;;;;5.93;2.58;;;;;;;32.53;23.12;99867.41;4456966;32;31834;-81
2022/07/06 10:58:46;;;;;;;5.65;2.90;;;;;;;32.54;23.22;99874.75;4457105;32;32361;-81
2022/07/06 11:01:14;;;;;;;4.97;2.95;;;;;;;32.85;23.26;99872.25;4444026;32;33893;-80
2022/07/06 11:03:43;;;;;;;5.18;2.78;;;;;;;32.56;23.16;99878.91;4456785;32;34048;-81
2022/07/06 11:06:13;;;;;;;5.25;3.15;;;;;;;32.65;23.16;99859.75;4444144;32;31894;-81
2022/07/06 11:08:46;;;;;;;5.68;3.37;;;;;;;32.57;23.22;99872.03;4470814;32;33892;-81
2022/07/06 11:11:37;;;;;;;5.37;2.95;;;;;;;32.70;23.58;99870.87;4456787;32;33872;-81
2022/07/06 11:14:14;;;;;;;4.97;3.00;;;;;;;33.05;23.80;99865.63;4456879;32;33775;-81
2022/07/06 11:16:48;;;;;;;5.15;2.92;;;;;;;32.89;23.63;99870.34;4457068;32;33227;-81
2022/07/06 11:19:25;;;;;;;6.90;2.95;;;;;;;33.10;24.07;99843.81;4456780;32;32256;-81
2022/07/06 11:21:57;;;;;;;5.30;2.90;;;;;;;33.29;23.96;99864.81;4456811;32;34138;-81
2022/07/06 11:24:27;;;;;;;4.85;2.37;;;;;;;33.36;22.19;99873.56;4457099;32;33201;-81
2022/07/06 11:26:56;;;;;;;5.97;3.05;;;;;;;33.26;21.61;99870.34;4444167;32;33315;-81
2022/07/06 11:29:28;;;;;;;4.70;2.70;;;;;;;33.41;22.93;99863.97;4456736;32;33663;-80
2022/07/06 11:31:58;;;;;;;4.93;2.97;;;;;;;32.91;21.50;99885.03;4456977;32;33974;-81
2022/07/06 11:34:30;;;;;;;4.87;2.75;;;;;;;33.01;21.86;99880.91;4444185;32;32608;-81
2022/07/06 11:37:01;;;;;;;5.37;3.25;;;;;;;33.41;22.69;99881.03;4455852;32;33399;-81
2022/07/06 11:39:29;;;;;;;4.87;2.62;;;;;;;33.82;23.22;99884.78;4457151;32;33771;-81
2022/07/06 11:41:58;;;;;;;3.95;1.90;;;;;;;33.54;20.17;99862.75;4456668;32;34660;-81
2022/07/06 11:44:26;;;;;;;5.87;2.72;;;;;;;33.36;18.83;99867.06;4456609;32;32879;-80